Time;durP1;ratioP1;P1;durP2;ratioP2;P2;SDS_P1;SDS_P2;PMS_P1;PMS_P2;Temp;Humidity;BMP_temperature;BMP_pressure;BME280_temperature;BME280_humidity;BME280_pressure;Samples;Min_cycle;Max_cycle;Signal;HPM_P1;HPM_P2
2021/03/09 00:01:53;;;;;;;22.83;10.70;;;;;;;;;;6121093;23;20169;-91
2021/03/09 00:05:00;;;;;;;24.67;11.00;;;;;;;;;;6122920;23;20608;-89
2021/03/09 00:08:06;;;;;;;25.23;12.47;;;;;;;;;;6142316;23;20242;-91
2021/03/09 00:11:10;;;;;;;26.90;12.67;;;;;;;;;;6119681;23;20252;-90
2021/03/09 00:14:15;;;;;;;28.80;13.00;;;;;;;;;;6121324;23;20174;-90
2021/03/09 00:17:19;;;;;;;28.23;12.70;;;;;;;;;;6120339;23;20177;-90
2021/03/09 00:20:24;;;;;;;33.20;13.07;;;;;;;;;;6131042;23;20200;-90
2021/03/09 00:23:29;;;;;;;27.87;12.63;;;;;;;;;;6137687;23;20176;-90
2021/03/09 00:26:33;;;;;;;27.63;13.13;;;;;;;;;;6136803;23;20177;-91
2021/03/09 00:29:38;;;;;;;29.77;13.30;;;;;;;;;;6137745;23;20620;-92
2021/03/09 00:32:43;;;;;;;28.10;12.97;;;;;;;;;;6137185;23;20197;-89
2021/03/09 00:35:48;;;;;;;27.43;13.07;;;;;;;;;;6136012;23;20171;-90
2021/03/09 00:38:53;;;;;;;28.07;12.20;;;;;;;;;;6137313;23;20157;-91
2021/03/09 00:41:58;;;;;;;29.63;12.77;;;;;;;;;;6136934;23;20441;-91
2021/03/09 00:45:02;;;;;;;27.23;12.80;;;;;;;;;;6137141;23;20194;-92
2021/03/09 00:48:07;;;;;;;27.57;13.17;;;;;;;;;;6136388;23;20633;-89
2021/03/09 00:51:11;;;;;;;30.50;12.90;;;;;;;;;;6136325;23;20173;-91
2021/03/09 00:54:16;;;;;;;27.63;13.07;;;;;;;;;;6134468;23;20169;-90
2021/03/09 00:57:21;;;;;;;29.17;13.73;;;;;;;;;;6134665;23;20225;-91
2021/03/09 01:00:26;;;;;;;28.07;13.17;;;;;;;;;;6135865;23;20225;-91
2021/03/09 01:03:30;;;;;;;26.10;12.20;;;;;;;;;;6135597;23;20258;-91
2021/03/09 01:06:34;;;;;;;31.57;13.10;;;;;;;;;;6135820;23;20173;-89
2021/03/09 01:09:41;;;;;;;29.27;13.00;;;;;;;;;;6136638;23;20177;-91
2021/03/09 01:12:46;;;;;;;29.10;12.90;;;;;;;;;;6136517;23;20274;-90
2021/03/09 01:15:50;;;;;;;30.97;13.40;;;;;;;;;;6135981;23;20177;-89
2021/03/09 01:18:54;;;;;;;25.50;12.33;;;;;;;;;;6135350;23;20236;-89
2021/03/09 01:21:59;;;;;;;27.17;12.07;;;;;;;;;;6117985;23;20279;-89
2021/03/09 01:25:06;;;;;;;28.40;12.60;;;;;;;;;;6118798;23;20165;-90
2021/03/09 01:28:11;;;;;;;29.23;12.97;;;;;;;;;;6135255;23;20241;-90
2021/03/09 01:31:15;;;;;;;36.07;12.80;;;;;;;;;;6119148;23;20153;-90
2021/03/09 01:34:20;;;;;;;28.37;13.27;;;;;;;;;;6120693;23;20196;-89
2021/03/09 01:37:27;;;;;;;27.70;12.50;;;;;;;;;;6118362;23;20500;-92
2021/03/09 01:40:32;;;;;;;27.53;12.57;;;;;;;;;;6118954;23;20629;-90
2021/03/09 01:43:37;;;;;;;30.53;12.43;;;;;;;;;;6118819;23;20617;-90
2021/03/09 01:46:41;;;;;;;29.93;13.30;;;;;;;;;;6119695;23;20173;-89
2021/03/09 01:49:46;;;;;;;29.50;13.30;;;;;;;;;;6119321;23;20248;-92
2021/03/09 01:52:51;;;;;;;32.67;13.40;;;;;;;;;;6118837;23;20189;-90
2021/03/09 01:55:56;;;;;;;28.10;12.70;;;;;;;;;;6117576;23;20173;-90
2021/03/09 01:59:02;;;;;;;31.07;12.93;;;;;;;;;;6118773;23;20215;-90
2021/03/09 02:02:06;;;;;;;31.57;14.03;;;;;;;;;;6117798;23;20165;-90
2021/03/09 02:05:12;;;;;;;31.23;13.77;;;;;;;;;;6118179;23;20181;-91
2021/03/09 02:08:16;;;;;;;32.13;12.87;;;;;;;;;;6118723;23;20191;-91
2021/03/09 02:11:29;;;;;;;32.10;13.43;;;;;;;;;;6117506;23;20264;-90
2021/03/09 02:14:39;;;;;;;28.23;13.20;;;;;;;;;;6118899;23;20206;-89
2021/03/09 02:17:44;;;;;;;31.60;13.33;;;;;;;;;;6118771;23;20177;-89
2021/03/09 02:21:07;;;;;;;35.70;14.67;;;;;;;;;;6089267;23;20267;-90
2021/03/09 02:24:19;;;;;;;31.00;13.27;;;;;;;;;;6090498;23;20166;-90
2021/03/09 02:27:44;;;;;;;31.07;13.00;;;;;;;;;;6089648;23;20165;-89
2021/03/09 02:30:51;;;;;;;34.40;13.13;;;;;;;;;;6090086;23;20224;-90
2021/03/09 02:33:58;;;;;;;29.57;13.20;;;;;;;;;;6089588;23;20186;-90
2021/03/09 02:37:05;;;;;;;31.20;13.93;;;;;;;;;;6091005;23;20169;-89
2021/03/09 02:40:14;;;;;;;38.17;14.67;;;;;;;;;;6090142;23;20177;-89
2021/03/09 02:43:19;;;;;;;30.63;13.57;;;;;;;;;;6089253;23;20246;-88
2021/03/09 02:46:25;;;;;;;31.00;13.20;;;;;;;;;;6089555;23;20273;-90
2021/03/09 02:49:31;;;;;;;32.53;14.00;;;;;;;;;;6089168;23;20173;-89
2021/03/09 02:52:41;;;;;;;32.10;13.63;;;;;;;;;;6089326;23;20205;-89
2021/03/09 02:55:46;;;;;;;32.83;13.63;;;;;;;;;;6090174;23;20174;-90
2021/03/09 02:58:54;;;;;;;30.73;12.83;;;;;;;;;;6089868;23;20205;-89
2021/03/09 03:02:00;;;;;;;32.77;13.07;;;;;;;;;;6088912;23;20181;-90
2021/03/09 03:05:06;;;;;;;38.80;14.10;;;;;;;;;;6086748;23;20188;-90
2021/03/09 03:08:11;;;;;;;34.77;13.87;;;;;;;;;;6088584;23;20194;-87
2021/03/09 03:11:16;;;;;;;33.07;13.90;;;;;;;;;;6089032;23;20266;-91
2021/03/09 03:14:21;;;;;;;33.10;13.73;;;;;;;;;;6089710;23;20170;-89
2021/03/09 03:17:28;;;;;;;39.03;14.07;;;;;;;;;;6089848;23;20246;-91
2021/03/09 03:20:33;;;;;;;36.33;14.70;;;;;;;;;;6130056;23;20249;-90
2021/03/09 03:23:39;;;;;;;32.73;14.13;;;;;;;;;;6134804;23;20169;-89
2021/03/09 03:26:45;;;;;;;31.03;13.93;;;;;;;;;;6135483;23;20245;-89
2021/03/09 03:29:50;;;;;;;34.73;13.90;;;;;;;;;;6135466;23;20181;-89
2021/03/09 03:32:55;;;;;;;36.20;14.70;;;;;;;;;;6135864;23;20208;-90
2021/03/09 03:36:03;;;;;;;34.60;14.67;;;;;;;;;;6135751;23;20192;-89
2021/03/09 03:39:08;;;;;;;30.40;12.80;;;;;;;;;;6134368;23;20197;-89
2021/03/09 03:42:13;;;;;;;32.90;12.90;;;;;;;;;;6137490;23;20176;-89
2021/03/09 03:45:19;;;;;;;30.87;13.67;;;;;;;;;;6137751;23;20181;-90
2021/03/09 03:48:25;;;;;;;32.80;13.10;;;;;;;;;;6138565;23;20731;-90
2021/03/09 03:51:32;;;;;;;36.50;15.13;;;;;;;;;;6136823;23;20180;-89
2021/03/09 03:54:40;;;;;;;34.60;15.07;;;;;;;;;;6137105;23;20168;-88
2021/03/09 03:57:47;;;;;;;35.70;14.80;;;;;;;;;;6120599;23;20173;-89
2021/03/09 04:00:53;;;;;;;35.80;14.20;;;;;;;;;;6137858;23;20177;-90
2021/03/09 04:03:58;;;;;;;34.40;14.30;;;;;;;;;;6138151;23;20850;-89
2021/03/09 04:07:03;;;;;;;37.87;14.30;;;;;;;;;;6135993;23;20177;-90
2021/03/09 04:10:08;;;;;;;33.23;13.50;;;;;;;;;;6136656;23;20185;-89
2021/03/09 04:13:14;;;;;;;34.47;13.90;;;;;;;;;;6136472;23;20217;-88
2021/03/09 04:16:19;;;;;;;38.47;15.03;;;;;;;;;;6137039;23;20173;-89
2021/03/09 04:19:25;;;;;;;40.73;15.20;;;;;;;;;;6135197;23;20196;-89
2021/03/09 04:22:29;;;;;;;42.03;14.83;;;;;;;;;;6119435;23;20172;-89
2021/03/09 04:25:34;;;;;;;38.13;14.60;;;;;;;;;;6118665;23;20212;-89
2021/03/09 04:28:40;;;;;;;34.77;13.83;;;;;;;;;;6120520;23;20213;-89
2021/03/09 04:31:45;;;;;;;32.73;14.23;;;;;;;;;;6119413;23;20296;-89
2021/03/09 04:34:51;;;;;;;36.17;14.60;;;;;;;;;;6120819;23;20176;-90
2021/03/09 04:37:56;;;;;;;34.97;14.03;;;;;;;;;;6119134;23;20217;-90
2021/03/09 04:41:00;;;;;;;37.90;14.80;;;;;;;;;;6119113;23;20268;-89
2021/03/09 04:44:05;;;;;;;38.57;15.00;;;;;;;;;;6119905;23;20238;-89
2021/03/09 04:47:10;;;;;;;40.97;15.43;;;;;;;;;;6118502;23;20688;-91
2021/03/09 04:50:17;;;;;;;36.00;14.33;;;;;;;;;;6119338;23;20221;-91
2021/03/09 04:53:23;;;;;;;34.87;14.03;;;;;;;;;;6118177;23;20648;-89
2021/03/09 04:56:29;;;;;;;38.13;15.93;;;;;;;;;;6117944;23;20173;-90
2021/03/09 04:59:33;;;;;;;38.17;15.20;;;;;;;;;;6119852;23;20173;-90
2021/03/09 05:02:54;;;;;;;35.10;15.37;;;;;;;;;;6119513;23;20165;-88
2021/03/09 05:06:00;;;;;;;37.33;15.23;;;;;;;;;;6120087;23;20172;-89
2021/03/09 05:09:06;;;;;;;39.93;15.47;;;;;;;;;;6120017;23;20616;-89
2021/03/09 05:12:10;;;;;;;34.97;14.23;;;;;;;;;;6120622;23;20186;-90
2021/03/09 05:15:17;;;;;;;36.73;14.87;;;;;;;;;;6120713;23;20216;-90
2021/03/09 05:18:21;;;;;;;40.03;16.37;;;;;;;;;;6120537;23;20214;-90
2021/03/09 05:21:27;;;;;;;36.57;15.10;;;;;;;;;;6120254;23;20621;-90
2021/03/09 05:24:31;;;;;;;37.83;14.83;;;;;;;;;;6119900;23;20166;-90
2021/03/09 05:27:36;;;;;;;40.57;15.90;;;;;;;;;;6120131;23;20181;-88
2021/03/09 05:30:40;;;;;;;35.33;14.57;;;;;;;;;;6119645;23;20193;-89
2021/03/09 05:33:45;;;;;;;42.30;17.23;;;;;;;;;;6121345;23;20193;-89
2021/03/09 05:36:50;;;;;;;41.60;15.70;;;;;;;;;;6120927;23;20220;-88
2021/03/09 05:39:55;;;;;;;39.77;15.93;;;;;;;;;;6120774;23;20196;-89
2021/03/09 05:43:00;;;;;;;47.07;16.63;;;;;;;;;;6119500;23;20173;-88
2021/03/09 05:46:05;;;;;;;46.83;17.50;;;;;;;;;;6125819;23;20177;-90
2021/03/09 05:49:11;;;;;;;40.77;15.60;;;;;;;;;;6129446;23;20270;-90
2021/03/09 05:52:18;;;;;;;40.40;15.37;;;;;;;;;;6129840;23;20257;-88
2021/03/09 05:55:26;;;;;;;44.30;16.00;;;;;;;;;;6129087;23;20201;-88
2021/03/09 05:58:31;;;;;;;49.27;17.27;;;;;;;;;;6129448;23;20172;-89
2021/03/09 06:01:37;;;;;;;48.40;17.27;;;;;;;;;;6121878;23;20164;-90
2021/03/09 06:04:41;;;;;;;44.90;15.20;;;;;;;;;;6120630;23;20190;-90
2021/03/09 06:07:47;;;;;;;43.93;15.90;;;;;;;;;;6121814;23;20177;-89
2021/03/09 06:10:52;;;;;;;45.20;16.27;;;;;;;;;;6120358;23;20245;-88
2021/03/09 06:13:57;;;;;;;45.03;16.20;;;;;;;;;;6122655;23;20313;-89
2021/03/09 06:17:09;;;;;;;44.33;17.10;;;;;;;;;;6124397;23;20216;-91
2021/03/09 06:20:21;;;;;;;47.23;16.83;;;;;;;;;;6132199;23;20181;-89
2021/03/09 06:23:28;;;;;;;50.17;17.70;;;;;;;;;;6136632;23;20213;-89
2021/03/09 06:26:34;;;;;;;41.13;15.07;;;;;;;;;;6139843;23;20177;-89
2021/03/09 06:29:44;;;;;;;41.00;16.77;;;;;;;;;;6136526;23;20165;-90
2021/03/09 06:32:49;;;;;;;44.97;17.43;;;;;;;;;;6137285;23;20193;-89
2021/03/09 06:35:54;;;;;;;51.73;17.67;;;;;;;;;;6138056;23;20305;-89
2021/03/09 06:38:59;;;;;;;41.90;16.93;;;;;;;;;;6136952;23;20229;-89
2021/03/09 06:42:04;;;;;;;47.30;15.87;;;;;;;;;;6136855;23;20243;-89
2021/03/09 06:45:10;;;;;;;45.80;17.10;;;;;;;;;;6136993;23;20212;-90
2021/03/09 06:48:21;;;;;;;39.83;16.77;;;;;;;;;;6137911;23;20210;-91
2021/03/09 06:51:27;;;;;;;44.60;15.47;;;;;;;;;;6138246;23;20188;-90
2021/03/09 06:54:42;;;;;;;40.33;15.17;;;;;;;;;;6138440;23;20269;-91
2021/03/09 06:58:04;;;;;;;44.07;17.10;;;;;;;;;;6140439;23;20677;-92
2021/03/09 07:01:16;;;;;;;40.53;17.33;;;;;;;;;;6139269;23;20173;-91
2021/03/09 07:04:21;;;;;;;44.90;16.50;;;;;;;;;;6141708;23;20186;-90
2021/03/09 07:07:34;;;;;;;43.43;16.00;;;;;;;;;;6139850;23;20249;-90
2021/03/09 07:10:40;;;;;;;43.70;16.47;;;;;;;;;;6140866;23;20177;-90
2021/03/09 07:13:45;;;;;;;41.47;16.40;;;;;;;;;;6141743;23;20241;-91
2021/03/09 07:16:52;;;;;;;43.70;16.60;;;;;;;;;;6140225;23;20224;-91
2021/03/09 07:19:58;;;;;;;45.60;18.13;;;;;;;;;;6141135;23;20228;-90
2021/03/09 07:23:03;;;;;;;44.00;17.73;;;;;;;;;;6139948;23;20168;-92
2021/03/09 07:26:10;;;;;;;41.47;17.50;;;;;;;;;;6142133;23;20169;-91
2021/03/09 07:29:17;;;;;;;46.47;18.80;;;;;;;;;;6141221;23;20155;-92
2021/03/09 07:32:23;;;;;;;42.40;18.03;;;;;;;;;;6140810;23;20229;-90
2021/03/09 07:35:28;;;;;;;50.53;17.90;;;;;;;;;;6141490;23;20248;-91
2021/03/09 07:38:33;;;;;;;46.07;19.37;;;;;;;;;;6142689;23;20197;-90
2021/03/09 07:41:42;;;;;;;46.70;17.97;;;;;;;;;;6142489;23;20194;-89
2021/03/09 07:44:48;;;;;;;44.67;18.13;;;;;;;;;;6141233;23;20173;-90
2021/03/09 07:47:55;;;;;;;48.40;18.80;;;;;;;;;;6144644;23;20212;-91
2021/03/09 07:51:04;;;;;;;53.13;18.63;;;;;;;;;;6139445;23;20197;-90
2021/03/09 07:54:11;;;;;;;46.43;17.50;;;;;;;;;;6139786;23;20280;-92
2021/03/09 07:57:26;;;;;;;47.57;17.87;;;;;;;;;;6141744;23;20173;-92
2021/03/09 08:00:47;;;;;;;48.03;18.43;;;;;;;;;;6142668;23;20174;-91
2021/03/09 08:04:07;;;;;;;45.93;17.30;;;;;;;;;;6142689;23;20214;-91
2021/03/09 08:07:11;;;;;;;47.83;18.63;;;;;;;;;;6140657;23;20161;-90
2021/03/09 08:10:35;;;;;;;47.93;17.93;;;;;;;;;;6142449;23;20170;-90
2021/03/09 08:13:41;;;;;;;48.13;17.53;;;;;;;;;;6140668;23;20268;-89
2021/03/09 08:16:47;;;;;;;42.97;18.07;;;;;;;;;;6141391;23;20268;-91
2021/03/09 08:19:52;;;;;;;43.87;16.53;;;;;;;;;;6140931;23;20216;-91
2021/03/09 08:22:57;;;;;;;38.37;17.30;;;;;;;;;;6140682;23;20203;-90
2021/03/09 08:26:02;;;;;;;43.73;16.27;;;;;;;;;;6140763;23;20176;-91
2021/03/09 08:29:22;;;;;;;40.03;16.10;;;;;;;;;;6142414;23;20185;-89
2021/03/09 08:32:30;;;;;;;38.23;15.73;;;;;;;;;;6141413;23;20201;-90
2021/03/09 08:35:38;;;;;;;35.50;15.03;;;;;;;;;;6143852;23;20194;-91
2021/03/09 08:38:43;;;;;;;45.03;14.93;;;;;;;;;;6142532;23;20173;-89
2021/03/09 08:41:57;;;;;;;40.40;15.53;;;;;;;;;;6141250;23;20670;-89
2021/03/09 08:45:16;;;;;;;38.77;16.87;;;;;;;;;;6141512;23;20178;-90
2021/03/09 08:48:42;;;;;;;39.03;16.80;;;;;;;;;;6140316;23;20624;-88
2021/03/09 08:51:51;;;;;;;41.17;15.37;;;;;;;;;;6142465;23;20165;-90
2021/03/09 08:54:56;;;;;;;41.17;14.93;;;;;;;;;;6139980;23;20188;-89
2021/03/09 08:58:07;;;;;;;41.43;17.57;;;;;;;;;;6140403;23;20221;-92
2021/03/09 09:01:22;;;;;;;36.20;15.03;;;;;;;;;;6137604;23;20177;-90
2021/03/09 09:04:28;;;;;;;44.13;18.53;;;;;;;;;;6138840;23;20218;-92
2021/03/09 09:07:35;;;;;;;39.63;16.57;;;;;;;;;;6138846;23;20245;-93
2021/03/09 09:10:45;;;;;;;33.53;14.97;;;;;;;;;;6138257;23;20180;-88
2021/03/09 09:13:50;;;;;;;37.50;16.43;;;;;;;;;;6140063;23;20218;-92
2021/03/09 09:17:13;;;;;;;46.47;18.23;;;;;;;;;;6140693;23;20209;-92
2021/03/09 09:20:21;;;;;;;35.40;14.67;;;;;;;;;;6138885;23;20253;-92
2021/03/09 09:23:27;;;;;;;33.80;13.90;;;;;;;;;;6139171;23;20181;-90
2021/03/09 09:26:32;;;;;;;36.87;14.50;;;;;;;;;;6138659;23;20222;-91
2021/03/09 09:29:37;;;;;;;38.53;14.33;;;;;;;;;;6140107;23;20212;-90
2021/03/09 09:33:00;;;;;;;31.20;13.73;;;;;;;;;;6143939;23;20193;-90
2021/03/09 09:36:06;;;;;;;46.17;15.03;;;;;;;;;;6140104;23;20168;-91
2021/03/09 09:39:12;;;;;;;30.87;13.30;;;;;;;;;;6141842;23;20168;-92
2021/03/09 09:42:18;;;;;;;30.77;13.80;;;;;;;;;;6139206;23;20196;-91
2021/03/09 09:45:22;;;;;;;34.57;13.90;;;;;;;;;;6140116;23;20181;-90
2021/03/09 09:48:28;;;;;;;30.53;13.47;;;;;;;;;;6139731;23;20196;-90
2021/03/09 09:51:40;;;;;;;31.93;13.83;;;;;;;;;;6137265;23;20260;-89
2021/03/09 09:54:54;;;;;;;28.50;13.40;;;;;;;;;;6135818;23;20321;-91
2021/03/09 09:58:01;;;;;;;35.13;13.43;;;;;;;;;;6142889;23;20177;-89
2021/03/09 10:01:06;;;;;;;27.47;12.70;;;;;;;;;;6141463;23;20225;-88
2021/03/09 10:04:11;;;;;;;27.43;12.33;;;;;;;;;;6137967;23;20177;-90
2021/03/09 10:07:18;;;;;;;32.37;12.23;;;;;;;;;;6136699;23;20193;-88
2021/03/09 10:10:22;;;;;;;29.27;13.33;;;;;;;;;;6137514;23;20173;-89
2021/03/09 10:13:27;;;;;;;28.37;12.63;;;;;;;;;;6137544;23;20280;-90
2021/03/09 10:16:41;;;;;;;38.23;11.30;;;;;;;;;;6137302;23;20192;-91
2021/03/09 10:19:49;;;;;;;29.07;11.33;;;;;;;;;;6138457;23;20196;-91
2021/03/09 10:23:03;;;;;;;23.27;10.83;;;;;;;;;;6137355;23;20169;-91
2021/03/09 10:26:08;;;;;;;29.67;13.83;;;;;;;;;;6141721;23;20173;-89
2021/03/09 10:29:13;;;;;;;24.90;12.20;;;;;;;;;;6138104;23;20209;-89
2021/03/09 10:32:18;;;;;;;25.10;12.27;;;;;;;;;;6138932;23;20613;-91
2021/03/09 10:35:27;;;;;;;28.73;12.47;;;;;;;;;;6138294;23;20181;-89
2021/03/09 10:38:33;;;;;;;21.90;11.40;;;;;;;;;;6140781;23;20169;-91
2021/03/09 10:41:37;;;;;;;24.57;11.47;;;;;;;;;;6141165;23;20169;-90
2021/03/09 10:44:42;;;;;;;34.47;11.13;;;;;;;;;;6142870;23;20162;-91
2021/03/09 10:47:50;;;;;;;29.60;12.40;;;;;;;;;;6141167;23;20173;-92
2021/03/09 10:50:55;;;;;;;26.97;12.03;;;;;;;;;;6144064;23;20173;-92
2021/03/09 10:54:04;;;;;;;29.60;11.73;;;;;;;;;;6141587;23;20203;-91
2021/03/09 10:57:10;;;;;;;27.53;10.77;;;;;;;;;;6141748;23;20173;-92
2021/03/09 11:00:16;;;;;;;19.30;9.83;;;;;;;;;;6141670;23;20173;-91
2021/03/09 11:03:20;;;;;;;20.45;9.57;;;;;;;;;;6141932;23;20238;-92
2021/03/09 11:06:31;;;;;;;20.73;9.53;;;;;;;;;;6143738;23;20501;-92
2021/03/09 11:09:39;;;;;;;19.77;9.80;;;;;;;;;;6145081;23;20228;-90
2021/03/09 11:12:44;;;;;;;29.08;10.35;;;;;;;;;;6146066;23;20265;-93
2021/03/09 11:15:49;;;;;;;23.83;10.73;;;;;;;;;;6144225;23;20170;-90
2021/03/09 11:18:54;;;;;;;23.23;10.07;;;;;;;;;;6144138;23;20216;-91
2021/03/09 11:21:58;;;;;;;22.73;10.13;;;;;;;;;;6123169;23;20281;-90
2021/03/09 11:25:05;;;;;;;23.30;10.33;;;;;;;;;;6124646;23;20162;-92
2021/03/09 11:28:10;;;;;;;24.00;9.70;;;;;;;;;;6123137;23;20245;-90
2021/03/09 11:31:15;;;;;;;19.03;8.93;;;;;;;;;;6142189;23;20173;-91
2021/03/09 11:34:20;;;;;;;21.17;9.43;;;;;;;;;;6123720;23;20248;-93
2021/03/09 11:37:25;;;;;;;28.47;11.00;;;;;;;;;;6124462;23;20244;-89
2021/03/09 11:40:31;;;;;;;23.02;9.43;;;;;;;;;;6126964;23;20180;-91
2021/03/09 11:43:36;;;;;;;19.67;8.00;;;;;;;;;;6125542;23;20170;-93
2021/03/09 11:46:41;;;;;;;20.07;7.80;;;;;;;;;;6126373;23;20173;-90
2021/03/09 11:49:48;;;;;;;19.60;8.13;;;;;;;;;;6126163;23;20606;-92
2021/03/09 11:52:53;;;;;;;19.67;8.02;;;;;;;;;;6126978;23;20170;-91
2021/03/09 11:55:58;;;;;;;15.93;7.10;;;;;;;;;;6124758;23;20613;-91
2021/03/09 11:59:03;;;;;;;13.40;6.63;;;;;;;;;;6125410;23;20189;-91
2021/03/09 12:02:09;;;;;;;12.23;6.57;;;;;;;;;;6125661;23;20170;-92
2021/03/09 12:05:15;;;;;;;17.23;5.80;;;;;;;;;;6124753;23;20185;-91
2021/03/09 12:08:19;;;;;;;18.37;5.93;;;;;;;;;;6124616;23;20245;-91
2021/03/09 12:11:25;;;;;;;12.53;6.10;;;;;;;;;;6126270;23;20161;-91
2021/03/09 12:14:30;;;;;;;14.43;6.50;;;;;;;;;;6126101;23;20257;-89
2021/03/09 12:17:42;;;;;;;18.10;7.00;;;;;;;;;;6126796;23;20259;-91
2021/03/09 12:20:49;;;;;;;16.70;7.43;;;;;;;;;;6140833;23;20180;-90
2021/03/09 12:23:54;;;;;;;27.30;8.00;;;;;;;;;;6140102;23;20603;-91
2021/03/09 12:27:01;;;;;;;22.47;8.43;;;;;;;;;;6141783;23;20192;-90
2021/03/09 12:30:06;;;;;;;18.30;6.67;;;;;;;;;;6143434;23;20244;-91
2021/03/09 12:33:11;;;;;;;15.90;6.73;;;;;;;;;;6140882;23;20228;-90
2021/03/09 12:36:16;;;;;;;28.57;7.10;;;;;;;;;;6142304;23;20202;-90
2021/03/09 12:39:20;;;;;;;14.35;7.15;;;;;;;;;;6141555;23;20202;-92
2021/03/09 12:42:26;;;;;;;19.23;6.90;;;;;;;;;;6142217;23;20269;-90
2021/03/09 12:45:32;;;;;;;15.40;6.18;;;;;;;;;;6142231;23;20213;-91
2021/03/09 12:48:40;;;;;;;13.73;5.93;;;;;;;;;;6140644;23;20192;-91
2021/03/09 12:51:44;;;;;;;16.37;6.00;;;;;;;;;;6140516;23;20168;-91
2021/03/09 12:54:49;;;;;;;12.43;6.03;;;;;;;;;;6143049;23;20210;-91
2021/03/09 12:57:55;;;;;;;12.47;5.57;;;;;;;;;;6139763;23;20613;-90
2021/03/09 13:00:59;;;;;;;12.20;5.27;;;;;;;;;;6142723;23;20153;-92
2021/03/09 13:04:04;;;;;;;13.90;6.37;;;;;;;;;;6141673;23;20173;-91
2021/03/09 13:07:11;;;;;;;13.87;6.33;;;;;;;;;;6145367;23;20227;-91
2021/03/09 13:10:18;;;;;;;15.03;7.23;;;;;;;;;;6147429;23;20184;-90
2021/03/09 13:13:42;;;;;;;22.47;9.40;;;;;;;;;;6142622;23;20269;-90
2021/03/09 13:16:50;;;;;;;18.30;8.00;;;;;;;;;;6141538;23;20156;-90
2021/03/09 13:19:54;;;;;;;17.13;7.93;;;;;;;;;;6144203;23;20244;-92
2021/03/09 13:22:59;;;;;;;20.03;8.13;;;;;;;;;;6144814;23;20165;-91
2021/03/09 13:26:04;;;;;;;17.23;9.23;;;;;;;;;;6148351;23;20310;-92
2021/03/09 13:29:09;;;;;;;24.60;9.60;;;;;;;;;;6141504;23;20217;-91
2021/03/09 13:32:15;;;;;;;20.13;9.50;;;;;;;;;;6143171;23;20209;-92
2021/03/09 13:35:20;;;;;;;16.53;9.00;;;;;;;;;;6142224;23;20156;-90
2021/03/09 13:38:24;;;;;;;19.63;10.20;;;;;;;;;;6142298;23;20503;-92
2021/03/09 13:41:29;;;;;;;23.17;10.43;;;;;;;;;;6143573;23;20177;-91
2021/03/09 13:44:35;;;;;;;17.97;9.10;;;;;;;;;;6142917;23;20149;-90
2021/03/09 13:47:40;;;;;;;28.60;10.20;;;;;;;;;;6142811;23;20223;-88
2021/03/09 13:50:53;;;;;;;26.33;9.20;;;;;;;;;;6143627;23;20565;-92
2021/03/09 13:54:01;;;;;;;24.08;9.50;;;;;;;;;;6142960;23;20277;-92
2021/03/09 13:57:06;;;;;;;24.42;9.50;;;;;;;;;;6144574;23;20189;-92
2021/03/09 14:00:14;;;;;;;17.73;9.50;;;;;;;;;;6142458;23;20157;-91
2021/03/09 14:03:22;;;;;;;19.75;9.55;;;;;;;;;;6145020;23;20161;-91
2021/03/09 14:06:33;;;;;;;21.27;9.40;;;;;;;;;;6144643;23;20161;-92
2021/03/09 14:09:38;;;;;;;19.25;9.93;;;;;;;;;;6143685;23;20189;-92
2021/03/09 14:12:44;;;;;;;19.80;9.05;;;;;;;;;;6142253;23;20193;-93
2021/03/09 14:19:11;;;;;;;20.45;9.13;;;;;;;;;;6142033;23;20200;-90
2021/03/09 14:22:16;;;;;;;18.13;9.70;;;;;;;;;;6125262;23;20173;-91
2021/03/09 14:25:22;;;;;;;17.60;8.90;;;;;;;;;;6125983;23;20540;-91
2021/03/09 14:28:26;;;;;;;15.13;8.15;;;;;;;;;;6125092;23;20168;-90
2021/03/09 14:31:32;;;;;;;19.08;9.88;;;;;;;;;;6124176;23;20173;-92
2021/03/09 14:34:38;;;;;;;16.98;8.90;;;;;;;;;;6124336;23;20193;-91
2021/03/09 14:37:47;;;;;;;18.30;8.70;;;;;;;;;;6123767;23;20221;-90
2021/03/09 14:40:52;;;;;;;18.42;9.27;;;;;;;;;;6123326;23;20173;-91
2021/03/09 14:43:57;;;;;;;15.75;7.82;;;;;;;;;;6124021;23;20197;-91
2021/03/09 14:47:05;;;;;;;21.80;8.70;;;;;;;;;;6124933;23;20157;-92
2021/03/09 14:50:12;;;;;;;17.88;8.27;;;;;;;;;;6123998;23;20164;-89
2021/03/09 14:53:17;;;;;;;16.48;8.48;;;;;;;;;;6124255;23;20226;-92
2021/03/09 14:56:25;;;;;;;73.32;24.20;;;;;;;;;;6122150;23;20197;-89
2021/03/09 14:59:33;;;;;;;19.40;9.80;;;;;;;;;;6132662;23;20173;-89
2021/03/09 15:02:41;;;;;;;18.30;8.30;;;;;;;;;;6124798;23;20169;-91
2021/03/09 15:05:50;;;;;;;24.90;9.45;;;;;;;;;;6121971;23;20189;-92
2021/03/09 15:08:56;;;;;;;17.42;8.30;;;;;;;;;;6123299;23;20181;-90
2021/03/09 15:12:01;;;;;;;19.90;8.45;;;;;;;;;;6124656;23;20173;-90
2021/03/09 15:15:06;;;;;;;16.35;7.90;;;;;;;;;;6124848;23;20661;-91
2021/03/09 15:18:12;;;;;;;21.05;8.45;;;;;;;;;;6128390;23;20197;-90
2021/03/09 15:21:18;;;;;;;17.47;8.97;;;;;;;;;;6126539;23;20185;-91
2021/03/09 15:24:23;;;;;;;19.48;8.88;;;;;;;;;;6126643;23;20177;-90
2021/03/09 15:27:27;;;;;;;22.33;8.70;;;;;;;;;;6125830;23;20168;-91
2021/03/09 23:01:10;;;;;;;34.80;12.57;;;;;;;;;;6173765;22;20219;-92
2021/03/09 23:04:14;;;;;;;29.07;12.77;;;;;;;;;;6226502;23;20195;-91
2021/03/09 23:07:19;;;;;;;28.77;11.90;;;;;;;;;;6209782;23;20175;-90
2021/03/09 23:10:24;;;;;;;34.33;13.77;;;;;;;;;;6208888;23;20627;-93
2021/03/09 23:13:29;;;;;;;30.97;12.60;;;;;;;;;;6226851;22;20167;-90
2021/03/09 23:16:34;;;;;;;31.60;12.37;;;;;;;;;;6208884;23;20241;-92
2021/03/09 23:19:39;;;;;;;43.27;14.03;;;;;;;;;;6209306;23;20254;-90
2021/03/09 23:22:43;;;;;;;41.23;14.67;;;;;;;;;;6208215;23;20246;-88
2021/03/09 23:25:48;;;;;;;29.40;12.90;;;;;;;;;;6209322;23;20186;-91
2021/03/09 23:28:54;;;;;;;31.77;12.80;;;;;;;;;;6209446;23;20165;-91
2021/03/09 23:32:03;;;;;;;30.97;12.73;;;;;;;;;;6211131;23;20163;-90
2021/03/09 23:35:10;;;;;;;35.30;13.70;;;;;;;;;;6211791;23;20306;-92
2021/03/09 23:38:17;;;;;;;32.17;12.90;;;;;;;;;;6210940;23;20218;-90
2021/03/09 23:41:22;;;;;;;33.97;13.23;;;;;;;;;;6211110;23;20198;-92
2021/03/09 23:44:27;;;;;;;32.27;13.30;;;;;;;;;;6228799;22;20176;-90
2021/03/09 23:47:32;;;;;;;33.07;13.37;;;;;;;;;;6211217;23;20347;-91
2021/03/09 23:50:37;;;;;;;30.27;12.83;;;;;;;;;;6211048;23;20159;-92
2021/03/09 23:53:42;;;;;;;28.03;12.27;;;;;;;;;;6228797;23;20179;-91
2021/03/09 23:56:47;;;;;;;27.53;11.73;;;;;;;;;;6228895;22;20190;-90
2021/03/09 23:59:52;;;;;;;24.77;11.83;;;;;;;;;;6212543;23;20167;-91
